sensor_id;sensor_type;location;lat;lon;timestamp;pressure;altitude;pressure_sealevel;temperature;humidity
52343;BME280;38277;51.972;4.624;2023-05-24T00:02:43;102710.0;;;10.8;67.5
52343;BME280;38277;51.972;4.624;2023-05-24T00:12:05;102700.0;;;10.7;68.0
52343;BME280;38277;51.972;4.624;2023-05-24T00:16:27;102710.0;;;10.6;68.5
52343;BME280;38277;51.972;4.624;2023-05-24T00:21:03;102700.0;;;10.6;68.5
52343;BME280;38277;51.972;4.624;2023-05-24T00:25:34;102700.0;;;10.6;69.0
52343;BME280;38277;51.972;4.624;2023-05-24T00:29:42;102710.0;;;10.5;69.0
52343;BME280;38277;51.972;4.624;2023-05-24T00:34:25;102700.0;;;10.5;69.5
52343;BME280;38277;51.972;4.624;2023-05-24T00:38:42;102710.0;;;10.4;70.0
52343;BME280;38277;51.972;4.624;2023-05-24T00:47:44;102700.0;;;10.4;70.0
52343;BME280;38277;51.972;4.624;2023-05-24T00:52:15;102690.0;;;10.3;70.5
52343;BME280;38277;51.972;4.624;2023-05-24T00:56:41;102700.0;;;10.3;70.5
52343;BME280;38277;51.972;4.624;2023-05-24T01:01:37;102700.0;;;10.3;70.5
52343;BME280;38277;51.972;4.624;2023-05-24T01:05:55;102700.0;;;10.2;70.5
52343;BME280;38277;51.972;4.624;2023-05-24T01:11:00;102700.0;;;10.1;70.5
52343;BME280;38277;51.972;4.624;2023-05-24T01:15:32;102690.0;;;10.1;71.0
52343;BME280;38277;51.972;4.624;2023-05-24T01:19:39;102700.0;;;10.1;71.5
52343;BME280;38277;51.972;4.624;2023-05-24T01:25:05;102700.0;;;10.1;71.5
52343;BME280;38277;51.972;4.624;2023-05-24T01:28:26;102710.0;;;10.1;71.5
52343;BME280;38277;51.972;4.624;2023-05-24T01:32:52;102700.0;;;10.1;72.0
52343;BME280;38277;51.972;4.624;2023-05-24T01:37:32;102700.0;;;10.0;72.0
52343;BME280;38277;51.972;4.624;2023-05-24T01:42:25;102700.0;;;10.0;72.0
52343;BME280;38277;51.972;4.624;2023-05-24T01:55:14;102700.0;;;9.9;72.5
52343;BME280;38277;51.972;4.624;2023-05-24T01:59:57;102700.0;;;9.9;73.0
52343;BME280;38277;51.972;4.624;2023-05-24T02:04:18;102700.0;;;9.9;73.0
52343;BME280;38277;51.972;4.624;2023-05-24T02:08:50;102690.0;;;9.9;73.0
52343;BME280;38277;51.972;4.624;2023-05-24T02:13:22;102680.0;;;9.9;73.5
52343;BME280;38277;51.972;4.624;2023-05-24T02:17:54;102690.0;;;9.9;73.5
52343;BME280;38277;51.972;4.624;2023-05-24T02:26:51;102680.0;;;9.9;74.0
52343;BME280;38277;51.972;4.624;2023-05-24T02:31:22;102690.0;;;9.9;74.0
52343;BME280;38277;51.972;4.624;2023-05-24T02:35:52;102680.0;;;9.8;74.0
52343;BME280;38277;51.972;4.624;2023-05-24T02:40:19;102680.0;;;9.8;74.0
52343;BME280;38277;51.972;4.624;2023-05-24T02:44:53;102690.0;;;9.8;74.5
52343;BME280;38277;51.972;4.624;2023-05-24T02:49:34;102680.0;;;9.8;74.5
52343;BME280;38277;51.972;4.624;2023-05-24T02:53:47;102690.0;;;9.7;74.5
52343;BME280;38277;51.972;4.624;2023-05-24T02:58:23;102690.0;;;9.7;74.5
52343;BME280;38277;51.972;4.624;2023-05-24T03:02:50;102680.0;;;9.7;75.0
52343;BME280;38277;51.972;4.624;2023-05-24T03:07:30;102690.0;;;9.7;75.0
52343;BME280;38277;51.972;4.624;2023-05-24T03:11:50;102700.0;;;9.6;75.5
52343;BME280;38277;51.972;4.624;2023-05-24T03:16:16;102690.0;;;9.6;75.5
52343;BME280;38277;51.972;4.624;2023-05-24T03:20:42;102680.0;;;9.6;76.0
52343;BME280;38277;51.972;4.624;2023-05-24T03:29:45;102680.0;;;9.7;76.0
52343;BME280;38277;51.972;4.624;2023-05-24T03:34:10;102670.0;;;9.6;76.0
52343;BME280;38277;51.972;4.624;2023-05-24T03:38:39;102670.0;;;9.6;76.0
52343;BME280;38277;51.972;4.624;2023-05-24T03:43:29;102680.0;;;9.6;76.5
52343;BME280;38277;51.972;4.624;2023-05-24T03:48:06;102670.0;;;9.6;76.5
52343;BME280;38277;51.972;4.624;2023-05-24T03:52:18;102660.0;;;9.6;76.5
52343;BME280;38277;51.972;4.624;2023-05-24T03:56:39;102660.0;;;9.6;76.5
52343;BME280;38277;51.972;4.624;2023-05-24T04:05:40;102670.0;;;9.6;77.0
52343;BME280;38277;51.972;4.624;2023-05-24T04:10:28;102680.0;;;9.6;77.0
52343;BME280;38277;51.972;4.624;2023-05-24T04:14:59;102690.0;;;9.7;77.0
52343;BME280;38277;51.972;4.624;2023-05-24T04:19:22;102690.0;;;9.8;77.0
52343;BME280;38277;51.972;4.624;2023-05-24T04:23:40;102690.0;;;9.9;77.5
52343;BME280;38277;51.972;4.624;2023-05-24T04:28:35;102690.0;;;10.0;77.5
52343;BME280;38277;51.972;4.624;2023-05-24T04:32:48;102690.0;;;10.2;77.5
52343;BME280;38277;51.972;4.624;2023-05-24T04:37:24;102690.0;;;10.4;78.0
52343;BME280;38277;51.972;4.624;2023-05-24T04:41:48;102680.0;;;10.5;78.0
52343;BME280;38277;51.972;4.624;2023-05-24T04:46:16;102690.0;;;10.7;77.5
52343;BME280;38277;51.972;4.624;2023-05-24T04:50:44;102690.0;;;10.8;77.5
52343;BME280;38277;51.972;4.624;2023-05-24T04:55:33;102680.0;;;11.0;77.5
52343;BME280;38277;51.972;4.624;2023-05-24T04:59:43;102680.0;;;11.1;77.5
52343;BME280;38277;51.972;4.624;2023-05-24T05:04:35;102670.0;;;11.2;77.5
52343;BME280;38277;51.972;4.624;2023-05-24T05:13:30;102660.0;;;11.3;77.0
52343;BME280;38277;51.972;4.624;2023-05-24T05:18:01;102660.0;;;11.4;77.5
52343;BME280;38277;51.972;4.624;2023-05-24T05:22:37;102670.0;;;11.5;77.5
52343;BME280;38277;51.972;4.624;2023-05-24T05:27:04;102670.0;;;11.6;77.5
52343;BME280;38277;51.972;4.624;2023-05-24T05:31:22;102680.0;;;11.7;77.5
52343;BME280;38277;51.972;4.624;2023-05-24T05:35:38;102680.0;;;11.8;77.0
52343;BME280;38277;51.972;4.624;2023-05-24T05:41:19;102690.0;;;12.1;77.0
52343;BME280;38277;51.972;4.624;2023-05-24T05:45:00;102680.0;;;12.4;76.5
52343;BME280;38277;51.972;4.624;2023-05-24T05:49:26;102680.0;;;12.7;75.5
52343;BME280;38277;51.972;4.624;2023-05-24T05:54:01;102680.0;;;13.0;74.0
52343;BME280;38277;51.972;4.624;2023-05-24T05:58:22;102690.0;;;13.3;73.0
52343;BME280;38277;51.972;4.624;2023-05-24T06:02:42;102690.0;;;13.5;72.5
52343;BME280;38277;51.972;4.624;2023-05-24T06:07:09;102700.0;;;13.7;71.5
52343;BME280;38277;51.972;4.624;2023-05-24T06:12:06;102700.0;;;13.9;70.5
52343;BME280;38277;51.972;4.624;2023-05-24T06:16:16;102700.0;;;14.0;69.5
52343;BME280;38277;51.972;4.624;2023-05-24T06:21:29;102700.0;;;14.2;69.0
52343;BME280;38277;51.972;4.624;2023-05-24T06:25:13;102700.0;;;14.3;68.0
52343;BME280;38277;51.972;4.624;2023-05-24T06:29:56;102700.0;;;14.5;67.5
52343;BME280;38277;51.972;4.624;2023-05-24T06:34:31;102700.0;;;14.6;66.5
52343;BME280;38277;51.972;4.624;2023-05-24T06:39:42;102700.0;;;14.8;66.0
52343;BME280;38277;51.972;4.624;2023-05-24T06:43:08;102700.0;;;15.0;65.5
52343;BME280;38277;51.972;4.624;2023-05-24T06:48:06;102690.0;;;15.1;65.0
52343;BME280;38277;51.972;4.624;2023-05-24T06:52:18;102690.0;;;15.4;65.0
52343;BME280;38277;51.972;4.624;2023-05-24T06:56:56;102700.0;;;15.6;64.0
52343;BME280;38277;51.972;4.624;2023-05-24T07:05:44;102690.0;;;16.0;62.0
52343;BME280;38277;51.972;4.624;2023-05-24T07:10:32;102690.0;;;16.1;61.5
52343;BME280;38277;51.972;4.624;2023-05-24T07:14:46;102690.0;;;16.2;61.0
52343;BME280;38277;51.972;4.624;2023-05-24T07:19:11;102700.0;;;16.3;60.5
52343;BME280;38277;51.972;4.624;2023-05-24T07:23:56;102700.0;;;16.4;60.0
52343;BME280;38277;51.972;4.624;2023-05-24T07:28:08;102700.0;;;16.5;57.0
52343;BME280;38277;51.972;4.624;2023-05-24T07:33:07;102700.0;;;16.5;56.0
52343;BME280;38277;51.972;4.624;2023-05-24T07:41:57;102700.0;;;16.7;55.0
52343;BME280;38277;51.972;4.624;2023-05-24T07:46:12;102700.0;;;16.8;54.5
52343;BME280;38277;51.972;4.624;2023-05-24T07:51:07;102710.0;;;17.0;54.0
52343;BME280;38277;51.972;4.624;2023-05-24T07:55:21;102710.0;;;17.2;54.5
52343;BME280;38277;51.972;4.624;2023-05-24T08:00:07;102700.0;;;17.5;53.5
52343;BME280;38277;51.972;4.624;2023-05-24T08:05:14;102700.0;;;17.7;52.0
52343;BME280;38277;51.972;4.624;2023-05-24T08:08:47;102700.0;;;17.8;51.5
52343;BME280;38277;51.972;4.624;2023-05-24T08:13:30;102710.0;;;17.9;51.0
52343;BME280;38277;51.972;4.624;2023-05-24T08:17:59;102700.0;;;17.9;51.5
52343;BME280;38277;51.972;4.624;2023-05-24T08:23:15;102700.0;;;17.9;51.0
52343;BME280;38277;51.972;4.624;2023-05-24T08:26:49;102690.0;;;17.9;50.5
52343;BME280;38277;51.972;4.624;2023-05-24T08:31:26;102690.0;;;18.0;51.0
52343;BME280;38277;51.972;4.624;2023-05-24T08:36:00;102680.0;;;18.0;50.5
52343;BME280;38277;51.972;4.624;2023-05-24T08:40:56;102670.0;;;18.1;49.5
52343;BME280;38277;51.972;4.624;2023-05-24T08:45:03;102690.0;;;18.2;48.5
52343;BME280;38277;51.972;4.624;2023-05-24T08:49:35;102690.0;;;18.3;48.5
52343;BME280;38277;51.972;4.624;2023-05-24T08:53:57;102690.0;;;18.4;48.0
52343;BME280;38277;51.972;4.624;2023-05-24T08:58:14;102690.0;;;18.5;47.5
52343;BME280;38277;51.972;4.624;2023-05-24T09:07:21;102690.0;;;18.9;47.0
52343;BME280;38277;51.972;4.624;2023-05-24T09:11:52;102680.0;;;19.4;46.0
52343;BME280;38277;51.972;4.624;2023-05-24T09:16:11;102680.0;;;19.8;45.5
52343;BME280;38277;51.972;4.624;2023-05-24T09:25:35;102690.0;;;19.7;44.0
52343;BME280;38277;51.972;4.624;2023-05-24T09:29:42;102690.0;;;19.6;44.5
52343;BME280;38277;51.972;4.624;2023-05-24T09:34:37;102670.0;;;19.7;43.0
52343;BME280;38277;51.972;4.624;2023-05-24T09:43:45;102680.0;;;19.8;42.5
52343;BME280;38277;51.972;4.624;2023-05-24T09:47:42;102660.0;;;19.7;43.5
52343;BME280;38277;51.972;4.624;2023-05-24T09:52:34;102650.0;;;19.6;44.0
52343;BME280;38277;51.972;4.624;2023-05-24T09:56:38;102660.0;;;19.7;43.0
52343;BME280;38277;51.972;4.624;2023-05-24T10:02:07;102650.0;;;19.6;43.0
52343;BME280;38277;51.972;4.624;2023-05-24T10:05:44;102660.0;;;19.6;41.0
52343;BME280;38277;51.972;4.624;2023-05-24T10:10:32;102650.0;;;19.7;41.5
52343;BME280;38277;51.972;4.624;2023-05-24T10:15:06;102650.0;;;20.1;40.0
52343;BME280;38277;51.972;4.624;2023-05-24T10:20:09;102640.0;;;20.3;40.5
52343;BME280;38277;51.972;4.624;2023-05-24T10:23:58;102640.0;;;20.6;40.0
52343;BME280;38277;51.972;4.624;2023-05-24T10:28:40;102640.0;;;20.8;38.0
52343;BME280;38277;51.972;4.624;2023-05-24T10:32:47;102640.0;;;20.9;38.5
52343;BME280;38277;51.972;4.624;2023-05-24T10:37:55;102640.0;;;21.1;38.5
52343;BME280;38277;51.972;4.624;2023-05-24T10:41:49;102640.0;;;21.2;38.0
52343;BME280;38277;51.972;4.624;2023-05-24T10:46:16;102640.0;;;21.5;38.0
52343;BME280;38277;51.972;4.624;2023-05-24T10:50:53;102630.0;;;21.8;37.0
52343;BME280;38277;51.972;4.624;2023-05-24T10:55:33;102640.0;;;21.7;37.0
52343;BME280;38277;51.972;4.624;2023-05-24T10:59:58;102640.0;;;21.5;37.5
52343;BME280;38277;51.972;4.624;2023-05-24T11:08:47;102630.0;;;22.7;36.0
52343;BME280;38277;51.972;4.624;2023-05-24T11:13:36;102630.0;;;22.8;35.0
52343;BME280;38277;51.972;4.624;2023-05-24T11:18:13;102640.0;;;22.7;35.5
52343;BME280;38277;51.972;4.624;2023-05-24T11:22:28;102640.0;;;22.5;36.0
52343;BME280;38277;51.972;4.624;2023-05-24T11:26:39;102630.0;;;22.1;36.5
52343;BME280;38277;51.972;4.624;2023-05-24T11:31:37;102650.0;;;21.6;37.0
52343;BME280;38277;51.972;4.624;2023-05-24T11:35:58;102640.0;;;21.1;38.0
52343;BME280;38277;51.972;4.624;2023-05-24T11:44:52;102640.0;;;20.5;40.0
52343;BME280;38277;51.972;4.624;2023-05-24T11:49:16;102650.0;;;20.3;41.0
52343;BME280;38277;51.972;4.624;2023-05-24T11:53:55;102650.0;;;20.1;41.5
52343;BME280;38277;51.972;4.624;2023-05-24T11:58:21;102640.0;;;19.8;42.5
52343;BME280;38277;51.972;4.624;2023-05-24T12:03:00;102640.0;;;19.8;42.5
52343;BME280;38277;51.972;4.624;2023-05-24T12:07:28;102640.0;;;19.7;43.0
52343;BME280;38277;51.972;4.624;2023-05-24T12:11:41;102630.0;;;19.7;43.0
52343;BME280;38277;51.972;4.624;2023-05-24T12:21:05;102640.0;;;19.7;43.0
52343;BME280;38277;51.972;4.624;2023-05-24T12:25:12;102640.0;;;19.8;43.5
52343;BME280;38277;51.972;4.624;2023-05-24T12:30:05;102640.0;;;19.9;43.0
52343;BME280;38277;51.972;4.624;2023-05-24T12:34:14;102640.0;;;20.0;43.0
52343;BME280;38277;51.972;4.624;2023-05-24T12:38:56;102630.0;;;20.1;43.0
52343;BME280;38277;51.972;4.624;2023-05-24T12:43:29;102630.0;;;20.5;42.5
52343;BME280;38277;51.972;4.624;2023-05-24T12:47:48;102630.0;;;20.8;42.0
52343;BME280;38277;51.972;4.624;2023-05-24T12:52:27;102630.0;;;20.8;42.5
52343;BME280;38277;51.972;4.624;2023-05-24T12:56:55;102630.0;;;20.7;42.0
52343;BME280;38277;51.972;4.624;2023-05-24T13:01:56;102640.0;;;20.7;42.0
52343;BME280;38277;51.972;4.624;2023-05-24T13:05:43;102630.0;;;20.7;42.0
52343;BME280;38277;51.972;4.624;2023-05-24T13:10:37;102640.0;;;20.7;42.0
52343;BME280;38277;51.972;4.624;2023-05-24T13:14:41;102640.0;;;20.6;42.5
52343;BME280;38277;51.972;4.624;2023-05-24T13:23:46;102640.0;;;20.4;43.0
52343;BME280;38277;51.972;4.624;2023-05-24T13:28:16;102640.0;;;20.2;43.0
52343;BME280;38277;51.972;4.624;2023-05-24T13:32:54;102650.0;;;20.0;43.5
52343;BME280;38277;51.972;4.624;2023-05-24T13:37:35;102640.0;;;19.9;43.5
52343;BME280;38277;51.972;4.624;2023-05-24T13:41:46;102640.0;;;19.8;44.0
52343;BME280;38277;51.972;4.624;2023-05-24T13:46:16;102640.0;;;19.6;44.5
52343;BME280;38277;51.972;4.624;2023-05-24T13:50:56;102640.0;;;19.5;45.0
52343;BME280;38277;51.972;4.624;2023-05-24T13:59:54;102630.0;;;19.6;45.0
52343;BME280;38277;51.972;4.624;2023-05-24T14:04:35;102640.0;;;19.7;44.5
52343;BME280;38277;51.972;4.624;2023-05-24T14:08:45;102640.0;;;19.7;44.5
52343;BME280;38277;51.972;4.624;2023-05-24T14:13:36;102640.0;;;19.8;43.5
52343;BME280;38277;51.972;4.624;2023-05-24T14:17:43;102650.0;;;19.8;43.5
52343;BME280;38277;51.972;4.624;2023-05-24T14:22:55;102640.0;;;19.8;43.5
52343;BME280;38277;51.972;4.624;2023-05-24T14:27:33;102640.0;;;19.8;44.0
52343;BME280;38277;51.972;4.624;2023-05-24T14:31:18;102640.0;;;20.0;43.5
52343;BME280;38277;51.972;4.624;2023-05-24T14:35:57;102640.0;;;20.2;43.0
52343;BME280;38277;51.972;4.624;2023-05-24T14:41:20;102630.0;;;20.3;43.0
52343;BME280;38277;51.972;4.624;2023-05-24T14:44:46;102630.0;;;20.5;42.5
52343;BME280;38277;51.972;4.624;2023-05-24T14:49:15;102630.0;;;20.7;42.5
52343;BME280;38277;51.972;4.624;2023-05-24T14:54:00;102630.0;;;21.1;41.5
52343;BME280;38277;51.972;4.624;2023-05-24T14:59:03;102630.0;;;21.4;40.5
52343;BME280;38277;51.972;4.624;2023-05-24T15:03:05;102620.0;;;22.1;39.5
52343;BME280;38277;51.972;4.624;2023-05-24T15:07:15;102630.0;;;22.8;38.0
52343;BME280;38277;51.972;4.624;2023-05-24T15:11:50;102630.0;;;23.5;37.5
52343;BME280;38277;51.972;4.624;2023-05-24T15:16:14;102630.0;;;24.1;36.0
52343;BME280;38277;51.972;4.624;2023-05-24T15:20:49;102640.0;;;24.0;36.0
52343;BME280;38277;51.972;4.624;2023-05-24T15:29:58;102620.0;;;25.8;33.0
52343;BME280;38277;51.972;4.624;2023-05-24T15:34:36;102630.0;;;25.2;33.0
52343;BME280;38277;51.972;4.624;2023-05-24T15:43:37;102640.0;;;23.1;36.0
52343;BME280;38277;51.972;4.624;2023-05-24T15:48:03;102630.0;;;22.3;37.0
52343;BME280;38277;51.972;4.624;2023-05-24T15:52:11;102660.0;;;21.7;38.0
52343;BME280;38277;51.972;4.624;2023-05-24T15:56:39;102650.0;;;21.2;39.5
52343;BME280;38277;51.972;4.624;2023-05-24T16:05:48;102650.0;;;20.3;41.0
52343;BME280;38277;51.972;4.624;2023-05-24T16:10:14;102660.0;;;20.0;42.0
52343;BME280;38277;51.972;4.624;2023-05-24T16:14:45;102650.0;;;19.7;42.5
52343;BME280;38277;51.972;4.624;2023-05-24T16:19:16;102640.0;;;19.6;42.5
52343;BME280;38277;51.972;4.624;2023-05-24T16:24:27;102630.0;;;19.5;43.0
52343;BME280;38277;51.972;4.624;2023-05-24T16:28:10;102640.0;;;19.3;43.0
52343;BME280;38277;51.972;4.624;2023-05-24T16:32:58;102640.0;;;19.2;43.0
52343;BME280;38277;51.972;4.624;2023-05-24T16:37:28;102650.0;;;19.1;43.5
52343;BME280;38277;51.972;4.624;2023-05-24T16:42:48;102630.0;;;18.9;43.5
52343;BME280;38277;51.972;4.624;2023-05-24T16:46:21;102640.0;;;18.8;44.0
52343;BME280;38277;51.972;4.624;2023-05-24T16:50:40;102640.0;;;18.7;44.5
52343;BME280;38277;51.972;4.624;2023-05-24T16:55:26;102630.0;;;18.6;44.5
52343;BME280;38277;51.972;4.624;2023-05-24T16:59:51;102630.0;;;18.6;44.5
52343;BME280;38277;51.972;4.624;2023-05-24T17:08:45;102630.0;;;18.5;45.0
52343;BME280;38277;51.972;4.624;2023-05-24T17:13:37;102630.0;;;18.4;45.0
52343;BME280;38277;51.972;4.624;2023-05-24T17:17:44;102640.0;;;18.3;45.0
52343;BME280;38277;51.972;4.624;2023-05-24T17:22:33;102640.0;;;18.3;45.5
52343;BME280;38277;51.972;4.624;2023-05-24T17:26:50;102640.0;;;18.2;46.0
52343;BME280;38277;51.972;4.624;2023-05-24T17:31:31;102640.0;;;18.2;46.0
52343;BME280;38277;51.972;4.624;2023-05-24T17:35:45;102640.0;;;18.1;46.5
52343;BME280;38277;51.972;4.624;2023-05-24T17:45:02;102650.0;;;17.8;47.0
52343;BME280;38277;51.972;4.624;2023-05-24T17:49:11;102650.0;;;17.7;47.5
52343;BME280;38277;51.972;4.624;2023-05-24T17:54:00;102660.0;;;17.6;48.0
52343;BME280;38277;51.972;4.624;2023-05-24T17:58:14;102660.0;;;17.5;48.0
52343;BME280;38277;51.972;4.624;2023-05-24T18:03:07;102660.0;;;17.4;48.5
52343;BME280;38277;51.972;4.624;2023-05-24T18:07:32;102660.0;;;17.4;48.5
52343;BME280;38277;51.972;4.624;2023-05-24T18:12:25;102660.0;;;17.4;48.5
52343;BME280;38277;51.972;4.624;2023-05-24T18:16:17;102660.0;;;17.4;49.0
52343;BME280;38277;51.972;4.624;2023-05-24T18:20:38;102660.0;;;17.4;49.0
52343;BME280;38277;51.972;4.624;2023-05-24T18:25:20;102660.0;;;17.3;49.0
52343;BME280;38277;51.972;4.624;2023-05-24T18:30:01;102660.0;;;17.1;49.5
52343;BME280;38277;51.972;4.624;2023-05-24T18:34:20;102660.0;;;17.0;49.5
52343;BME280;38277;51.972;4.624;2023-05-24T18:38:44;102660.0;;;16.9;49.5
52343;BME280;38277;51.972;4.624;2023-05-24T18:47:49;102650.0;;;16.8;50.5
52343;BME280;38277;51.972;4.624;2023-05-24T18:52:16;102660.0;;;16.7;50.5
52343;BME280;38277;51.972;4.624;2023-05-24T19:01:29;102670.0;;;16.6;50.5
52343;BME280;38277;51.972;4.624;2023-05-24T19:05:41;102670.0;;;16.6;51.0
52343;BME280;38277;51.972;4.624;2023-05-24T19:10:14;102680.0;;;16.6;51.0
52343;BME280;38277;51.972;4.624;2023-05-24T19:14:40;102680.0;;;16.5;51.5
52343;BME280;38277;51.972;4.624;2023-05-24T19:23:59;102690.0;;;16.3;52.0
52343;BME280;38277;51.972;4.624;2023-05-24T19:28:14;102690.0;;;16.3;52.5
52343;BME280;38277;51.972;4.624;2023-05-24T19:32:46;102690.0;;;16.2;52.5
52343;BME280;38277;51.972;4.624;2023-05-24T19:37:08;102700.0;;;16.1;53.0
52343;BME280;38277;51.972;4.624;2023-05-24T19:42:06;102710.0;;;16.0;53.5
52343;BME280;38277;51.972;4.624;2023-05-24T19:46:59;102710.0;;;15.9;53.5
52343;BME280;38277;51.972;4.624;2023-05-24T19:50:46;102710.0;;;15.9;54.0
52343;BME280;38277;51.972;4.624;2023-05-24T19:55:30;102710.0;;;15.8;54.5
52343;BME280;38277;51.972;4.624;2023-05-24T20:00:00;102710.0;;;15.7;55.0
52343;BME280;38277;51.972;4.624;2023-05-24T20:05:14;102720.0;;;15.7;55.0
52343;BME280;38277;51.972;4.624;2023-05-24T20:08:56;102720.0;;;15.6;55.5
52343;BME280;38277;51.972;4.624;2023-05-24T20:13:21;102730.0;;;15.6;55.5
52343;BME280;38277;51.972;4.624;2023-05-24T20:17:43;102740.0;;;15.6;56.0
52343;BME280;38277;51.972;4.624;2023-05-24T20:27:04;102740.0;;;15.5;56.5
52343;BME280;38277;51.972;4.624;2023-05-24T20:32:10;102740.0;;;15.4;57.0
52343;BME280;38277;51.972;4.624;2023-05-24T20:35:58;102750.0;;;15.2;58.0
52343;BME280;38277;51.972;4.624;2023-05-24T20:40:53;102760.0;;;15.1;58.5
52343;BME280;38277;51.972;4.624;2023-05-24T20:44:52;102760.0;;;15.0;59.0
52343;BME280;38277;51.972;4.624;2023-05-24T20:49:35;102770.0;;;14.9;59.0
52343;BME280;38277;51.972;4.624;2023-05-24T20:53:39;102760.0;;;14.8;59.5
52343;BME280;38277;51.972;4.624;2023-05-24T20:59:12;102770.0;;;14.7;60.0
52343;BME280;38277;51.972;4.624;2023-05-24T21:02:52;102770.0;;;14.6;60.5
52343;BME280;38277;51.972;4.624;2023-05-24T21:07:53;102770.0;;;14.5;60.5
52343;BME280;38277;51.972;4.624;2023-05-24T21:11:52;102780.0;;;14.3;61.0
52343;BME280;38277;51.972;4.624;2023-05-24T21:20:42;102780.0;;;14.1;62.0
52343;BME280;38277;51.972;4.624;2023-05-24T21:25:15;102790.0;;;14.0;62.0
52343;BME280;38277;51.972;4.624;2023-05-24T21:29:53;102800.0;;;13.9;62.5
52343;BME280;38277;51.972;4.624;2023-05-24T21:34:36;102800.0;;;13.8;62.5
52343;BME280;38277;51.972;4.624;2023-05-24T21:39:01;102800.0;;;13.8;63.0
52343;BME280;38277;51.972;4.624;2023-05-24T21:43:29;102800.0;;;13.7;63.0
52343;BME280;38277;51.972;4.624;2023-05-24T21:47:48;102820.0;;;13.6;63.5
52343;BME280;38277;51.972;4.624;2023-05-24T21:56:52;102820.0;;;13.5;64.0
52343;BME280;38277;51.972;4.624;2023-05-24T22:01:23;102830.0;;;13.4;64.5
52343;BME280;38277;51.972;4.624;2023-05-24T22:14:59;102830.0;;;13.2;65.0
52343;BME280;38277;51.972;4.624;2023-05-24T22:19:30;102840.0;;;13.2;65.0
52343;BME280;38277;51.972;4.624;2023-05-24T22:24:05;102830.0;;;13.2;65.5
52343;BME280;38277;51.972;4.624;2023-05-24T22:28:31;102830.0;;;13.2;65.5
52343;BME280;38277;51.972;4.624;2023-05-24T22:32:56;102820.0;;;13.1;65.5
52343;BME280;38277;51.972;4.624;2023-05-24T22:37:33;102830.0;;;13.1;66.0
52343;BME280;38277;51.972;4.624;2023-05-24T22:41:48;102830.0;;;13.1;66.0
52343;BME280;38277;51.972;4.624;2023-05-24T22:46:25;102840.0;;;13.1;66.0
52343;BME280;38277;51.972;4.624;2023-05-24T22:50:54;102830.0;;;13.1;66.0
52343;BME280;38277;51.972;4.624;2023-05-24T22:55:17;102830.0;;;13.0;66.5
52343;BME280;38277;51.972;4.624;2023-05-24T22:59:49;102840.0;;;13.0;66.5
52343;BME280;38277;51.972;4.624;2023-05-24T23:04:34;102840.0;;;12.9;66.5
52343;BME280;38277;51.972;4.624;2023-05-24T23:08:54;102840.0;;;12.8;66.5
52343;BME280;38277;51.972;4.624;2023-05-24T23:13:23;102840.0;;;12.8;67.0
52343;BME280;38277;51.972;4.624;2023-05-24T23:17:41;102830.0;;;12.8;67.5
52343;BME280;38277;51.972;4.624;2023-05-24T23:27:05;102830.0;;;12.7;68.0
52343;BME280;38277;51.972;4.624;2023-05-24T23:31:31;102840.0;;;12.6;68.5
52343;BME280;38277;51.972;4.624;2023-05-24T23:40:28;102830.0;;;12.5;68.5
52343;BME280;38277;51.972;4.624;2023-05-24T23:45:04;102830.0;;;12.5;69.0
52343;BME280;38277;51.972;4.624;2023-05-24T23:49:30;102830.0;;;12.5;69.0
52343;BME280;38277;51.972;4.624;2023-05-24T23:53:50;102830.0;;;12.4;69.5
